sensor_id;sensor_type;location;lat;lon;timestamp;P1;durP1;ratioP1;P2;durP2;ratioP2
11504;SDS011;5809;53.262;10.408;2023-09-18T00:00:30;5.10;;;4.70;;
11504;SDS011;5809;53.262;10.408;2023-09-18T00:02:58;5.72;;;5.07;;
11504;SDS011;5809;53.262;10.408;2023-09-18T00:05:27;5.50;;;4.88;;
11504;SDS011;5809;53.262;10.408;2023-09-18T00:07:55;5.15;;;4.75;;
11504;SDS011;5809;53.262;10.408;2023-09-18T00:10:22;5.50;;;5.00;;
11504;SDS011;5809;53.262;10.408;2023-09-18T00:12:51;6.25;;;5.28;;
11504;SDS011;5809;53.262;10.408;2023-09-18T00:15:18;6.05;;;5.55;;
11504;SDS011;5809;53.262;10.408;2023-09-18T00:17:45;5.80;;;5.30;;
11504;SDS011;5809;53.262;10.408;2023-09-18T00:20:12;6.72;;;5.05;;
11504;SDS011;5809;53.262;10.408;2023-09-18T00:22:42;6.03;;;5.47;;
11504;SDS011;5809;53.262;10.408;2023-09-18T00:25:09;7.10;;;5.20;;
11504;SDS011;5809;53.262;10.408;2023-09-18T00:27:36;8.88;;;5.28;;
11504;SDS011;5809;53.262;10.408;2023-09-18T00:30:05;5.28;;;4.85;;
11504;SDS011;5809;53.262;10.408;2023-09-18T00:32:34;5.30;;;4.90;;
11504;SDS011;5809;53.262;10.408;2023-09-18T00:35:01;5.78;;;5.20;;
11504;SDS011;5809;53.262;10.408;2023-09-18T00:37:28;5.68;;;4.90;;
11504;SDS011;5809;53.262;10.408;2023-09-18T00:39:56;6.47;;;5.47;;
11504;SDS011;5809;53.262;10.408;2023-09-18T00:42:23;7.70;;;5.53;;
11504;SDS011;5809;53.262;10.408;2023-09-18T00:44:50;6.00;;;5.50;;
11504;SDS011;5809;53.262;10.408;2023-09-18T00:47:19;6.30;;;5.50;;
11504;SDS011;5809;53.262;10.408;2023-09-18T00:49:47;6.03;;;5.43;;
11504;SDS011;5809;53.262;10.408;2023-09-18T00:52:15;5.57;;;5.10;;
11504;SDS011;5809;53.262;10.408;2023-09-18T00:54:43;6.57;;;5.40;;
11504;SDS011;5809;53.262;10.408;2023-09-18T00:57:11;5.90;;;5.30;;
11504;SDS011;5809;53.262;10.408;2023-09-18T00:59:38;6.65;;;5.53;;
11504;SDS011;5809;53.262;10.408;2023-09-18T01:02:06;5.45;;;4.93;;
11504;SDS011;5809;53.262;10.408;2023-09-18T01:04:34;7.20;;;5.03;;
11504;SDS011;5809;53.262;10.408;2023-09-18T01:07:01;5.72;;;5.22;;
11504;SDS011;5809;53.262;10.408;2023-09-18T01:09:29;7.90;;;5.68;;
11504;SDS011;5809;53.262;10.408;2023-09-18T01:12:00;5.80;;;5.30;;
11504;SDS011;5809;53.262;10.408;2023-09-18T01:14:33;8.93;;;5.63;;
11504;SDS011;5809;53.262;10.408;2023-09-18T01:17:06;5.88;;;5.38;;
11504;SDS011;5809;53.262;10.408;2023-09-18T01:19:41;6.05;;;5.55;;
11504;SDS011;5809;53.262;10.408;2023-09-18T01:22:09;7.28;;;5.60;;
11504;SDS011;5809;53.262;10.408;2023-09-18T01:24:39;7.50;;;5.80;;
11504;SDS011;5809;53.262;10.408;2023-09-18T01:27:08;6.63;;;5.80;;
11504;SDS011;5809;53.262;10.408;2023-09-18T01:29:38;6.28;;;5.78;;
11504;SDS011;5809;53.262;10.408;2023-09-18T01:32:05;7.20;;;5.70;;
11504;SDS011;5809;53.262;10.408;2023-09-18T01:34:32;6.18;;;5.63;;
11504;SDS011;5809;53.262;10.408;2023-09-18T01:37:01;7.15;;;5.80;;
11504;SDS011;5809;53.262;10.408;2023-09-18T01:39:30;6.35;;;5.57;;
11504;SDS011;5809;53.262;10.408;2023-09-18T01:42:00;6.70;;;6.13;;
11504;SDS011;5809;53.262;10.408;2023-09-18T01:44:29;5.82;;;5.32;;
11504;SDS011;5809;53.262;10.408;2023-09-18T01:46:57;6.00;;;5.47;;
11504;SDS011;5809;53.262;10.408;2023-09-18T01:49:28;6.20;;;5.60;;
11504;SDS011;5809;53.262;10.408;2023-09-18T01:51:55;7.38;;;5.88;;
11504;SDS011;5809;53.262;10.408;2023-09-18T01:54:24;5.90;;;5.40;;
11504;SDS011;5809;53.262;10.408;2023-09-18T01:56:51;6.55;;;5.60;;
11504;SDS011;5809;53.262;10.408;2023-09-18T01:59:20;7.07;;;6.32;;
11504;SDS011;5809;53.262;10.408;2023-09-18T02:01:47;6.55;;;5.63;;
11504;SDS011;5809;53.262;10.408;2023-09-18T02:04:15;7.03;;;5.85;;
11504;SDS011;5809;53.262;10.408;2023-09-18T02:06:42;5.93;;;5.43;;
11504;SDS011;5809;53.262;10.408;2023-09-18T02:09:09;8.52;;;5.97;;
11504;SDS011;5809;53.262;10.408;2023-09-18T02:11:37;6.50;;;5.90;;
11504;SDS011;5809;53.262;10.408;2023-09-18T02:14:05;6.38;;;5.78;;
11504;SDS011;5809;53.262;10.408;2023-09-18T02:16:34;6.57;;;5.97;;
11504;SDS011;5809;53.262;10.408;2023-09-18T02:19:02;7.30;;;5.93;;
11504;SDS011;5809;53.262;10.408;2023-09-18T02:21:29;6.00;;;5.40;;
11504;SDS011;5809;53.262;10.408;2023-09-18T02:23:56;6.15;;;5.55;;
11504;SDS011;5809;53.262;10.408;2023-09-18T02:26:24;6.40;;;5.80;;
11504;SDS011;5809;53.262;10.408;2023-09-18T02:28:51;6.97;;;5.70;;
11504;SDS011;5809;53.262;10.408;2023-09-18T02:31:19;8.45;;;6.38;;
11504;SDS011;5809;53.262;10.408;2023-09-18T02:33:47;6.57;;;5.97;;
11504;SDS011;5809;53.262;10.408;2023-09-18T02:36:14;6.60;;;5.90;;
11504;SDS011;5809;53.262;10.408;2023-09-18T02:38:42;6.43;;;5.90;;
11504;SDS011;5809;53.262;10.408;2023-09-18T02:41:09;8.23;;;6.47;;
11504;SDS011;5809;53.262;10.408;2023-09-18T02:43:36;7.65;;;6.32;;
11504;SDS011;5809;53.262;10.408;2023-09-18T02:46:03;7.00;;;6.40;;
11504;SDS011;5809;53.262;10.408;2023-09-18T02:48:31;6.57;;;5.97;;
11504;SDS011;5809;53.262;10.408;2023-09-18T02:50:59;7.80;;;6.10;;
11504;SDS011;5809;53.262;10.408;2023-09-18T02:53:26;7.00;;;6.15;;
11504;SDS011;5809;53.262;10.408;2023-09-18T02:55:54;6.40;;;5.80;;
11504;SDS011;5809;53.262;10.408;2023-09-18T02:58:22;6.70;;;6.10;;
11504;SDS011;5809;53.262;10.408;2023-09-18T03:00:51;6.25;;;5.75;;
11504;SDS011;5809;53.262;10.408;2023-09-18T03:03:18;6.75;;;6.13;;
11504;SDS011;5809;53.262;10.408;2023-09-18T03:05:45;10.27;;;6.25;;
11504;SDS011;5809;53.262;10.408;2023-09-18T03:08:14;6.88;;;6.28;;
11504;SDS011;5809;53.262;10.408;2023-09-18T03:10:42;6.70;;;6.10;;
11504;SDS011;5809;53.262;10.408;2023-09-18T03:13:11;6.88;;;6.18;;
11504;SDS011;5809;53.262;10.408;2023-09-18T03:15:39;8.07;;;7.20;;
11504;SDS011;5809;53.262;10.408;2023-09-18T03:18:06;7.38;;;6.60;;
11504;SDS011;5809;53.262;10.408;2023-09-18T03:20:33;6.82;;;6.22;;
11504;SDS011;5809;53.262;10.408;2023-09-18T03:23:01;6.75;;;6.15;;
11504;SDS011;5809;53.262;10.408;2023-09-18T03:25:30;7.05;;;6.40;;
11504;SDS011;5809;53.262;10.408;2023-09-18T03:27:57;6.45;;;5.85;;
11504;SDS011;5809;53.262;10.408;2023-09-18T03:30:24;10.70;;;6.93;;
11504;SDS011;5809;53.262;10.408;2023-09-18T03:32:51;7.28;;;6.65;;
11504;SDS011;5809;53.262;10.408;2023-09-18T03:35:19;7.63;;;6.93;;
11504;SDS011;5809;53.262;10.408;2023-09-18T03:37:46;6.95;;;6.35;;
11504;SDS011;5809;53.262;10.408;2023-09-18T03:40:14;6.53;;;5.93;;
11504;SDS011;5809;53.262;10.408;2023-09-18T03:42:43;8.45;;;7.10;;
11504;SDS011;5809;53.262;10.408;2023-09-18T03:45:10;7.35;;;6.25;;
11504;SDS011;5809;53.262;10.408;2023-09-18T03:47:37;8.15;;;6.75;;
11504;SDS011;5809;53.262;10.408;2023-09-18T03:50:05;7.28;;;6.68;;
11504;SDS011;5809;53.262;10.408;2023-09-18T03:52:33;7.47;;;6.88;;
11504;SDS011;5809;53.262;10.408;2023-09-18T03:55:01;8.68;;;6.32;;
11504;SDS011;5809;53.262;10.408;2023-09-18T03:57:28;7.70;;;7.00;;
11504;SDS011;5809;53.262;10.408;2023-09-18T03:59:56;7.70;;;7.00;;
11504;SDS011;5809;53.262;10.408;2023-09-18T04:02:24;7.90;;;7.20;;
11504;SDS011;5809;53.262;10.408;2023-09-18T04:04:52;7.93;;;7.22;;
11504;SDS011;5809;53.262;10.408;2023-09-18T04:07:20;7.40;;;6.80;;
11504;SDS011;5809;53.262;10.408;2023-09-18T04:09:47;8.40;;;6.95;;
11504;SDS011;5809;53.262;10.408;2023-09-18T04:12:14;7.57;;;6.85;;
11504;SDS011;5809;53.262;10.408;2023-09-18T04:14:41;7.95;;;7.15;;
11504;SDS011;5809;53.262;10.408;2023-09-18T04:17:09;7.65;;;6.85;;
11504;SDS011;5809;53.262;10.408;2023-09-18T04:19:36;7.97;;;6.53;;
11504;SDS011;5809;53.262;10.408;2023-09-18T04:22:04;8.60;;;6.57;;
11504;SDS011;5809;53.262;10.408;2023-09-18T04:24:30;7.65;;;6.50;;
11504;SDS011;5809;53.262;10.408;2023-09-18T04:26:58;7.22;;;6.63;;
11504;SDS011;5809;53.262;10.408;2023-09-18T04:29:25;7.45;;;6.60;;
11504;SDS011;5809;53.262;10.408;2023-09-18T04:31:52;7.25;;;6.55;;
11504;SDS011;5809;53.262;10.408;2023-09-18T04:34:21;7.38;;;6.78;;
11504;SDS011;5809;53.262;10.408;2023-09-18T04:36:48;7.20;;;6.53;;
11504;SDS011;5809;53.262;10.408;2023-09-18T04:39:15;7.50;;;6.78;;
11504;SDS011;5809;53.262;10.408;2023-09-18T04:41:42;7.93;;;7.13;;
11504;SDS011;5809;53.262;10.408;2023-09-18T04:44:09;8.15;;;6.85;;
11504;SDS011;5809;53.262;10.408;2023-09-18T04:46:37;7.78;;;6.93;;
11504;SDS011;5809;53.262;10.408;2023-09-18T04:49:07;7.65;;;6.90;;
11504;SDS011;5809;53.262;10.408;2023-09-18T04:51:37;7.35;;;6.65;;
11504;SDS011;5809;53.262;10.408;2023-09-18T04:54:06;8.02;;;7.22;;
11504;SDS011;5809;53.262;10.408;2023-09-18T04:56:33;11.48;;;7.50;;
11504;SDS011;5809;53.262;10.408;2023-09-18T04:59:00;7.45;;;6.60;;
11504;SDS011;5809;53.262;10.408;2023-09-18T05:01:28;7.60;;;6.90;;
11504;SDS011;5809;53.262;10.408;2023-09-18T05:03:55;9.35;;;6.85;;
11504;SDS011;5809;53.262;10.408;2023-09-18T05:06:22;7.50;;;6.88;;
11504;SDS011;5809;53.262;10.408;2023-09-18T05:08:51;7.82;;;6.78;;
11504;SDS011;5809;53.262;10.408;2023-09-18T05:11:18;7.32;;;6.63;;
11504;SDS011;5809;53.262;10.408;2023-09-18T05:13:45;7.22;;;6.47;;
11504;SDS011;5809;53.262;10.408;2023-09-18T05:16:12;7.20;;;6.60;;
11504;SDS011;5809;53.262;10.408;2023-09-18T05:18:40;7.53;;;6.82;;
11504;SDS011;5809;53.262;10.408;2023-09-18T05:21:09;9.07;;;6.20;;
11504;SDS011;5809;53.262;10.408;2023-09-18T05:23:36;7.47;;;6.78;;
11504;SDS011;5809;53.262;10.408;2023-09-18T05:26:04;7.47;;;6.78;;
11504;SDS011;5809;53.262;10.408;2023-09-18T05:28:32;7.60;;;6.90;;
11504;SDS011;5809;53.262;10.408;2023-09-18T05:30:59;7.10;;;6.50;;
11504;SDS011;5809;53.262;10.408;2023-09-18T05:33:26;7.35;;;6.47;;
11504;SDS011;5809;53.262;10.408;2023-09-18T05:35:53;7.20;;;6.50;;
11504;SDS011;5809;53.262;10.408;2023-09-18T05:38:21;9.73;;;6.88;;
11504;SDS011;5809;53.262;10.408;2023-09-18T05:40:47;7.05;;;6.35;;
11504;SDS011;5809;53.262;10.408;2023-09-18T05:43:16;6.72;;;6.13;;
11504;SDS011;5809;53.262;10.408;2023-09-18T05:45:43;7.05;;;6.35;;
11504;SDS011;5809;53.262;10.408;2023-09-18T05:48:10;7.10;;;6.22;;
11504;SDS011;5809;53.262;10.408;2023-09-18T05:50:38;12.48;;;6.40;;
11504;SDS011;5809;53.262;10.408;2023-09-18T05:53:06;7.32;;;6.65;;
11504;SDS011;5809;53.262;10.408;2023-09-18T05:55:34;7.45;;;6.47;;
11504;SDS011;5809;53.262;10.408;2023-09-18T05:58:00;10.00;;;6.10;;
11504;SDS011;5809;53.262;10.408;2023-09-18T06:00:30;6.80;;;6.13;;
11504;SDS011;5809;53.262;10.408;2023-09-18T06:02:57;8.10;;;6.00;;
11504;SDS011;5809;53.262;10.408;2023-09-18T06:05:24;8.15;;;5.88;;
11504;SDS011;5809;53.262;10.408;2023-09-18T06:07:51;6.57;;;5.88;;
11504;SDS011;5809;53.262;10.408;2023-09-18T06:10:18;6.50;;;5.90;;
11504;SDS011;5809;53.262;10.408;2023-09-18T06:12:46;6.10;;;5.50;;
11504;SDS011;5809;53.262;10.408;2023-09-18T06:15:13;6.47;;;5.45;;
11504;SDS011;5809;53.262;10.408;2023-09-18T06:17:41;6.38;;;5.80;;
11504;SDS011;5809;53.262;10.408;2023-09-18T06:20:10;6.47;;;5.40;;
11504;SDS011;5809;53.262;10.408;2023-09-18T06:22:39;5.68;;;5.05;;
11504;SDS011;5809;53.262;10.408;2023-09-18T06:25:07;5.63;;;5.22;;
11504;SDS011;5809;53.262;10.408;2023-09-18T06:27:35;5.53;;;5.03;;
11504;SDS011;5809;53.262;10.408;2023-09-18T06:30:03;5.57;;;5.07;;
11504;SDS011;5809;53.262;10.408;2023-09-18T06:32:31;5.40;;;4.90;;
11504;SDS011;5809;53.262;10.408;2023-09-18T06:34:59;5.70;;;5.10;;
11504;SDS011;5809;53.262;10.408;2023-09-18T06:37:26;7.60;;;5.25;;
11504;SDS011;5809;53.262;10.408;2023-09-18T06:39:53;6.63;;;5.10;;
11504;SDS011;5809;53.262;10.408;2023-09-18T06:42:21;5.70;;;5.10;;
11504;SDS011;5809;53.262;10.408;2023-09-18T06:44:48;5.72;;;5.13;;
11504;SDS011;5809;53.262;10.408;2023-09-18T06:47:15;7.72;;;4.78;;
11504;SDS011;5809;53.262;10.408;2023-09-18T06:49:42;5.72;;;5.10;;
11504;SDS011;5809;53.262;10.408;2023-09-18T06:52:11;6.82;;;4.72;;
11504;SDS011;5809;53.262;10.408;2023-09-18T06:54:38;5.25;;;4.75;;
11504;SDS011;5809;53.262;10.408;2023-09-18T06:57:05;6.35;;;4.75;;
11504;SDS011;5809;53.262;10.408;2023-09-18T06:59:33;8.63;;;5.10;;
11504;SDS011;5809;53.262;10.408;2023-09-18T07:02:00;5.28;;;4.88;;
11504;SDS011;5809;53.262;10.408;2023-09-18T07:04:27;6.38;;;4.93;;
11504;SDS011;5809;53.262;10.408;2023-09-18T07:06:54;5.57;;;5.00;;
11504;SDS011;5809;53.262;10.408;2023-09-18T07:09:23;8.77;;;5.00;;
11504;SDS011;5809;53.262;10.408;2023-09-18T07:11:51;7.18;;;4.30;;
11504;SDS011;5809;53.262;10.408;2023-09-18T07:14:18;5.97;;;5.45;;
11504;SDS011;5809;53.262;10.408;2023-09-18T07:16:45;5.40;;;4.90;;
11504;SDS011;5809;53.262;10.408;2023-09-18T07:19:12;5.07;;;4.68;;
11504;SDS011;5809;53.262;10.408;2023-09-18T07:21:42;6.05;;;4.78;;
11504;SDS011;5809;53.262;10.408;2023-09-18T07:24:10;5.57;;;5.07;;
11504;SDS011;5809;53.262;10.408;2023-09-18T07:26:44;5.15;;;4.75;;
11504;SDS011;5809;53.262;10.408;2023-09-18T07:29:12;5.38;;;4.88;;
11504;SDS011;5809;53.262;10.408;2023-09-18T07:31:40;6.28;;;4.60;;
11504;SDS011;5809;53.262;10.408;2023-09-18T07:34:07;5.20;;;4.80;;
11504;SDS011;5809;53.262;10.408;2023-09-18T07:36:34;5.10;;;4.70;;
11504;SDS011;5809;53.262;10.408;2023-09-18T07:39:01;6.90;;;4.97;;
11504;SDS011;5809;53.262;10.408;2023-09-18T07:41:29;5.72;;;4.82;;
11504;SDS011;5809;53.262;10.408;2023-09-18T07:43:57;4.68;;;4.28;;
11504;SDS011;5809;53.262;10.408;2023-09-18T07:46:24;5.25;;;4.75;;
11504;SDS011;5809;53.262;10.408;2023-09-18T07:48:52;6.05;;;4.10;;
11504;SDS011;5809;53.262;10.408;2023-09-18T07:51:19;5.05;;;4.55;;
11504;SDS011;5809;53.262;10.408;2023-09-18T07:53:46;5.85;;;4.68;;
11504;SDS011;5809;53.262;10.408;2023-09-18T07:56:13;5.00;;;4.60;;
11504;SDS011;5809;53.262;10.408;2023-09-18T07:58:40;6.68;;;4.90;;
11504;SDS011;5809;53.262;10.408;2023-09-18T08:01:08;5.15;;;4.60;;
11504;SDS011;5809;53.262;10.408;2023-09-18T08:03:35;5.40;;;4.80;;
11504;SDS011;5809;53.262;10.408;2023-09-18T08:06:02;4.78;;;4.22;;
11504;SDS011;5809;53.262;10.408;2023-09-18T08:08:30;5.75;;;4.38;;
11504;SDS011;5809;53.262;10.408;2023-09-18T08:11:00;6.35;;;4.82;;
11504;SDS011;5809;53.262;10.408;2023-09-18T08:13:34;6.65;;;4.30;;
11504;SDS011;5809;53.262;10.408;2023-09-18T08:16:01;6.18;;;4.40;;
11504;SDS011;5809;53.262;10.408;2023-09-18T08:18:30;4.93;;;4.43;;
11504;SDS011;5809;53.262;10.408;2023-09-18T08:20:57;8.65;;;4.40;;
11504;SDS011;5809;53.262;10.408;2023-09-18T08:23:25;5.00;;;4.60;;
11504;SDS011;5809;53.262;10.408;2023-09-18T08:25:52;4.88;;;4.47;;
11504;SDS011;5809;53.262;10.408;2023-09-18T08:28:22;4.88;;;4.47;;
11504;SDS011;5809;53.262;10.408;2023-09-18T08:30:49;4.90;;;4.10;;
11504;SDS011;5809;53.262;10.408;2023-09-18T08:33:16;4.60;;;4.20;;
11504;SDS011;5809;53.262;10.408;2023-09-18T08:35:45;7.20;;;4.63;;
11504;SDS011;5809;53.262;10.408;2023-09-18T08:38:12;5.93;;;5.30;;
11504;SDS011;5809;53.262;10.408;2023-09-18T08:40:40;5.05;;;4.53;;
11504;SDS011;5809;53.262;10.408;2023-09-18T08:43:08;5.03;;;4.53;;
11504;SDS011;5809;53.262;10.408;2023-09-18T08:45:38;6.03;;;4.65;;
11504;SDS011;5809;53.262;10.408;2023-09-18T08:48:11;5.13;;;4.63;;
11504;SDS011;5809;53.262;10.408;2023-09-18T08:50:38;6.72;;;4.57;;
11504;SDS011;5809;53.262;10.408;2023-09-18T08:53:07;5.55;;;5.00;;
11504;SDS011;5809;53.262;10.408;2023-09-18T08:55:34;6.43;;;5.00;;
11504;SDS011;5809;53.262;10.408;2023-09-18T08:58:01;5.82;;;5.22;;
11504;SDS011;5809;53.262;10.408;2023-09-18T09:00:29;5.10;;;4.70;;
11504;SDS011;5809;53.262;10.408;2023-09-18T09:02:56;8.00;;;5.10;;
11504;SDS011;5809;53.262;10.408;2023-09-18T09:05:24;7.80;;;5.00;;
11504;SDS011;5809;53.262;10.408;2023-09-18T09:07:51;6.20;;;5.20;;
11504;SDS011;5809;53.262;10.408;2023-09-18T09:10:20;6.05;;;5.05;;
11504;SDS011;5809;53.262;10.408;2023-09-18T09:12:54;5.88;;;4.53;;
11504;SDS011;5809;53.262;10.408;2023-09-18T09:15:22;6.45;;;4.93;;
11504;SDS011;5809;53.262;10.408;2023-09-18T09:17:51;5.85;;;5.25;;
11504;SDS011;5809;53.262;10.408;2023-09-18T09:20:18;6.70;;;5.20;;
11504;SDS011;5809;53.262;10.408;2023-09-18T09:22:45;6.88;;;5.10;;
11504;SDS011;5809;53.262;10.408;2023-09-18T09:25:24;5.55;;;5.03;;
11504;SDS011;5809;53.262;10.408;2023-09-18T09:27:57;5.32;;;4.88;;
11504;SDS011;5809;53.262;10.408;2023-09-18T09:30:25;5.68;;;5.13;;
11504;SDS011;5809;53.262;10.408;2023-09-18T09:32:52;6.22;;;5.10;;
11504;SDS011;5809;53.262;10.408;2023-09-18T09:35:24;5.50;;;4.78;;
11504;SDS011;5809;53.262;10.408;2023-09-18T09:37:56;5.28;;;4.78;;
11504;SDS011;5809;53.262;10.408;2023-09-18T09:40:25;5.85;;;5.03;;
11504;SDS011;5809;53.262;10.408;2023-09-18T09:42:53;7.40;;;6.05;;
11504;SDS011;5809;53.262;10.408;2023-09-18T09:45:25;6.25;;;5.10;;
11504;SDS011;5809;53.262;10.408;2023-09-18T09:47:54;7.60;;;5.93;;
11504;SDS011;5809;53.262;10.408;2023-09-18T09:50:21;5.82;;;4.82;;
11504;SDS011;5809;53.262;10.408;2023-09-18T09:52:51;6.25;;;5.28;;
11504;SDS011;5809;53.262;10.408;2023-09-18T09:55:20;5.05;;;4.55;;
11504;SDS011;5809;53.262;10.408;2023-09-18T09:57:51;5.88;;;4.70;;
11504;SDS011;5809;53.262;10.408;2023-09-18T10:00:19;8.57;;;4.80;;
11504;SDS011;5809;53.262;10.408;2023-09-18T10:02:56;5.53;;;5.03;;
11504;SDS011;5809;53.262;10.408;2023-09-18T10:05:24;9.20;;;5.07;;
11504;SDS011;5809;53.262;10.408;2023-09-18T10:07:55;5.43;;;4.20;;
11504;SDS011;5809;53.262;10.408;2023-09-18T10:10:25;6.25;;;4.80;;
11504;SDS011;5809;53.262;10.408;2023-09-18T10:13:01;6.32;;;4.78;;
11504;SDS011;5809;53.262;10.408;2023-09-18T10:15:34;7.38;;;4.53;;
11504;SDS011;5809;53.262;10.408;2023-09-18T10:18:04;5.05;;;4.55;;
11504;SDS011;5809;53.262;10.408;2023-09-18T10:20:39;7.40;;;4.68;;
11504;SDS011;5809;53.262;10.408;2023-09-18T10:23:12;5.43;;;4.47;;
11504;SDS011;5809;53.262;10.408;2023-09-18T10:25:50;7.88;;;4.68;;
11504;SDS011;5809;53.262;10.408;2023-09-18T10:28:23;7.97;;;4.57;;
11504;SDS011;5809;53.262;10.408;2023-09-18T10:30:52;6.45;;;4.13;;
11504;SDS011;5809;53.262;10.408;2023-09-18T10:33:24;8.38;;;4.40;;
11504;SDS011;5809;53.262;10.408;2023-09-18T10:35:52;5.88;;;4.75;;
11504;SDS011;5809;53.262;10.408;2023-09-18T10:38:20;8.27;;;4.72;;
11504;SDS011;5809;53.262;10.408;2023-09-18T10:40:47;7.53;;;4.80;;
11504;SDS011;5809;53.262;10.408;2023-09-18T10:43:15;6.55;;;4.68;;
11504;SDS011;5809;53.262;10.408;2023-09-18T10:45:44;7.22;;;4.60;;
11504;SDS011;5809;53.262;10.408;2023-09-18T10:48:13;5.28;;;4.60;;
11504;SDS011;5809;53.262;10.408;2023-09-18T10:50:42;7.50;;;4.50;;
11504;SDS011;5809;53.262;10.408;2023-09-18T10:53:10;7.35;;;4.80;;
11504;SDS011;5809;53.262;10.408;2023-09-18T10:55:38;6.05;;;4.43;;
11504;SDS011;5809;53.262;10.408;2023-09-18T10:58:05;7.82;;;4.43;;
11504;SDS011;5809;53.262;10.408;2023-09-18T11:00:33;5.63;;;4.22;;
11504;SDS011;5809;53.262;10.408;2023-09-18T11:03:12;7.82;;;4.47;;
11504;SDS011;5809;53.262;10.408;2023-09-18T11:05:43;5.97;;;4.70;;
11504;SDS011;5809;53.262;10.408;2023-09-18T11:08:30;6.28;;;4.18;;
11504;SDS011;5809;53.262;10.408;2023-09-18T11:11:01;5.13;;;4.10;;
11504;SDS011;5809;53.262;10.408;2023-09-18T11:13:35;8.02;;;4.03;;
11504;SDS011;5809;53.262;10.408;2023-09-18T11:16:16;7.03;;;4.22;;
11504;SDS011;5809;53.262;10.408;2023-09-18T11:18:51;6.65;;;4.30;;
11504;SDS011;5809;53.262;10.408;2023-09-18T11:21:23;5.38;;;4.30;;
11504;SDS011;5809;53.262;10.408;2023-09-18T11:23:57;4.90;;;4.03;;
11504;SDS011;5809;53.262;10.408;2023-09-18T11:26:28;8.25;;;4.28;;
11504;SDS011;5809;53.262;10.408;2023-09-18T11:28:56;7.47;;;4.20;;
11504;SDS011;5809;53.262;10.408;2023-09-18T11:31:40;7.03;;;4.43;;
11504;SDS011;5809;53.262;10.408;2023-09-18T11:34:13;10.23;;;4.22;;
11504;SDS011;5809;53.262;10.408;2023-09-18T11:36:40;6.63;;;3.85;;
11504;SDS011;5809;53.262;10.408;2023-09-18T11:39:08;9.13;;;3.95;;
11504;SDS011;5809;53.262;10.408;2023-09-18T11:41:36;5.95;;;3.60;;
11504;SDS011;5809;53.262;10.408;2023-09-18T11:47:00;5.57;;;3.95;;
11504;SDS011;5809;53.262;10.408;2023-09-18T11:49:30;7.28;;;3.90;;
11504;SDS011;5809;53.262;10.408;2023-09-18T11:51:58;7.97;;;3.95;;
11504;SDS011;5809;53.262;10.408;2023-09-18T11:54:27;7.15;;;3.55;;
11504;SDS011;5809;53.262;10.408;2023-09-18T11:56:54;5.65;;;3.95;;
11504;SDS011;5809;53.262;10.408;2023-09-18T11:59:32;6.82;;;3.67;;
11504;SDS011;5809;53.262;10.408;2023-09-18T12:02:03;8.98;;;3.70;;
11504;SDS011;5809;53.262;10.408;2023-09-18T12:04:34;10.00;;;3.63;;
11504;SDS011;5809;53.262;10.408;2023-09-18T12:07:02;7.88;;;3.42;;
11504;SDS011;5809;53.262;10.408;2023-09-18T12:09:30;8.27;;;3.75;;
11504;SDS011;5809;53.262;10.408;2023-09-18T12:11:57;6.38;;;3.60;;
11504;SDS011;5809;53.262;10.408;2023-09-18T12:14:29;8.63;;;3.13;;
11504;SDS011;5809;53.262;10.408;2023-09-18T12:16:57;7.18;;;3.65;;
11504;SDS011;5809;53.262;10.408;2023-09-18T12:19:27;6.90;;;2.85;;
11504;SDS011;5809;53.262;10.408;2023-09-18T12:21:56;8.75;;;3.00;;
11504;SDS011;5809;53.262;10.408;2023-09-18T12:24:23;8.55;;;3.17;;
11504;SDS011;5809;53.262;10.408;2023-09-18T12:26:51;7.07;;;3.10;;
11504;SDS011;5809;53.262;10.408;2023-09-18T12:29:18;5.85;;;2.30;;
11504;SDS011;5809;53.262;10.408;2023-09-18T12:31:46;5.68;;;2.58;;
11504;SDS011;5809;53.262;10.408;2023-09-18T12:34:15;8.55;;;2.63;;
11504;SDS011;5809;53.262;10.408;2023-09-18T12:36:43;5.70;;;2.55;;
11504;SDS011;5809;53.262;10.408;2023-09-18T12:39:13;5.72;;;2.75;;
11504;SDS011;5809;53.262;10.408;2023-09-18T12:41:41;7.03;;;3.15;;
11504;SDS011;5809;53.262;10.408;2023-09-18T12:44:09;4.28;;;2.40;;
11504;SDS011;5809;53.262;10.408;2023-09-18T12:46:36;3.20;;;2.55;;
11504;SDS011;5809;53.262;10.408;2023-09-18T12:49:15;4.90;;;2.30;;
11504;SDS011;5809;53.262;10.408;2023-09-18T12:51:54;6.90;;;2.40;;
11504;SDS011;5809;53.262;10.408;2023-09-18T12:57:06;4.80;;;2.58;;
11504;SDS011;5809;53.262;10.408;2023-09-18T12:59:33;7.15;;;2.13;;
11504;SDS011;5809;53.262;10.408;2023-09-18T13:02:01;4.22;;;2.25;;
11504;SDS011;5809;53.262;10.408;2023-09-18T13:04:29;5.07;;;2.40;;
11504;SDS011;5809;53.262;10.408;2023-09-18T13:07:04;8.52;;;2.47;;
11504;SDS011;5809;53.262;10.408;2023-09-18T13:09:33;4.75;;;2.33;;
11504;SDS011;5809;53.262;10.408;2023-09-18T13:12:04;6.00;;;2.60;;
11504;SDS011;5809;53.262;10.408;2023-09-18T13:17:23;4.30;;;2.40;;
11504;SDS011;5809;53.262;10.408;2023-09-18T13:19:50;5.78;;;2.33;;
11504;SDS011;5809;53.262;10.408;2023-09-18T13:22:21;5.03;;;2.38;;
11504;SDS011;5809;53.262;10.408;2023-09-18T13:24:54;4.03;;;1.98;;
11504;SDS011;5809;53.262;10.408;2023-09-18T13:27:23;5.18;;;2.00;;
11504;SDS011;5809;53.262;10.408;2023-09-18T13:29:51;6.63;;;2.00;;
11504;SDS011;5809;53.262;10.408;2023-09-18T13:32:18;9.82;;;2.28;;
11504;SDS011;5809;53.262;10.408;2023-09-18T13:34:45;4.72;;;2.00;;
11504;SDS011;5809;53.262;10.408;2023-09-18T13:37:13;6.05;;;2.00;;
11504;SDS011;5809;53.262;10.408;2023-09-18T13:39:42;7.78;;;2.30;;
11504;SDS011;5809;53.262;10.408;2023-09-18T13:42:10;4.60;;;2.00;;
11504;SDS011;5809;53.262;10.408;2023-09-18T13:44:39;4.30;;;2.08;;
11504;SDS011;5809;53.262;10.408;2023-09-18T13:47:05;7.03;;;2.33;;
11504;SDS011;5809;53.262;10.408;2023-09-18T13:49:32;5.13;;;2.00;;
11504;SDS011;5809;53.262;10.408;2023-09-18T13:51:59;4.47;;;2.53;;
11504;SDS011;5809;53.262;10.408;2023-09-18T13:54:26;5.90;;;2.15;;
11504;SDS011;5809;53.262;10.408;2023-09-18T13:56:54;5.05;;;2.10;;
11504;SDS011;5809;53.262;10.408;2023-09-18T13:59:21;6.03;;;2.10;;
11504;SDS011;5809;53.262;10.408;2023-09-18T14:01:50;4.18;;;2.03;;
11504;SDS011;5809;53.262;10.408;2023-09-18T14:04:17;5.97;;;1.92;;
11504;SDS011;5809;53.262;10.408;2023-09-18T14:06:44;4.75;;;2.00;;
11504;SDS011;5809;53.262;10.408;2023-09-18T14:09:11;4.68;;;2.10;;
11504;SDS011;5809;53.262;10.408;2023-09-18T14:11:38;4.53;;;2.20;;
11504;SDS011;5809;53.262;10.408;2023-09-18T14:14:05;3.80;;;2.00;;
11504;SDS011;5809;53.262;10.408;2023-09-18T14:16:32;6.60;;;2.25;;
11504;SDS011;5809;53.262;10.408;2023-09-18T14:19:01;4.22;;;2.13;;
11504;SDS011;5809;53.262;10.408;2023-09-18T14:21:28;5.18;;;2.20;;
11504;SDS011;5809;53.262;10.408;2023-09-18T14:23:58;6.32;;;2.45;;
11504;SDS011;5809;53.262;10.408;2023-09-18T14:26:25;6.25;;;2.00;;
11504;SDS011;5809;53.262;10.408;2023-09-18T14:28:52;3.30;;;2.20;;
11504;SDS011;5809;53.262;10.408;2023-09-18T14:31:19;3.15;;;2.25;;
11504;SDS011;5809;53.262;10.408;2023-09-18T14:33:46;4.78;;;2.13;;
11504;SDS011;5809;53.262;10.408;2023-09-18T14:36:14;6.57;;;2.30;;
11504;SDS011;5809;53.262;10.408;2023-09-18T14:38:41;13.95;;;2.42;;
11504;SDS011;5809;53.262;10.408;2023-09-18T14:41:08;4.82;;;2.05;;
11504;SDS011;5809;53.262;10.408;2023-09-18T14:43:36;4.32;;;2.08;;
11504;SDS011;5809;53.262;10.408;2023-09-18T14:46:03;7.00;;;2.30;;
11504;SDS011;5809;53.262;10.408;2023-09-18T14:48:29;5.15;;;2.40;;
11504;SDS011;5809;53.262;10.408;2023-09-18T14:50:57;4.25;;;2.20;;
11504;SDS011;5809;53.262;10.408;2023-09-18T14:53:26;4.53;;;2.30;;
11504;SDS011;5809;53.262;10.408;2023-09-18T14:55:53;5.80;;;2.22;;
11504;SDS011;5809;53.262;10.408;2023-09-18T14:58:21;6.28;;;2.28;;
11504;SDS011;5809;53.262;10.408;2023-09-18T15:00:48;4.05;;;2.25;;
11504;SDS011;5809;53.262;10.408;2023-09-18T15:03:15;5.93;;;2.00;;